Terminal Aerodrome Forecast
Issued by NWS

Home | Current Version | Previous Version | Text Only | Print | Product List | Glossary On
Versions: 1 2 3 4 5 6 7 8 9 10 11 12 13
739
FTUS46 KSEW 172320
TAFBFI
TAF
KBFI 172320Z 1800/1824 14010KT 4SM RA BR OVC040
      TEMPO 1800/1804 2SM RA BR OVC025
     FM180400 16012KT 2SM RA BR OVC018
     FM181600 18010KT P6SM -RA BKN020 OVC040
     FM182200 20012KT P6SM -SHRA BKN025 BKN050=

USA.gov is the U.S. government's official web portal to all federal, state and local government web resources and services.